sensor_id;sensor_type;location;lat;lon;timestamp;P1;durP1;ratioP1;P2;durP2;ratioP2
82744;SDS011;72484;50.004;14.356;2023-09-08T00:00:54;9.80;;;4.60;;
82744;SDS011;72484;50.004;14.356;2023-09-08T00:03:41;10.10;;;4.60;;
82744;SDS011;72484;50.004;14.356;2023-09-08T00:06:27;9.90;;;4.60;;
82744;SDS011;72484;50.004;14.356;2023-09-08T00:09:14;9.20;;;4.20;;
82744;SDS011;72484;50.004;14.356;2023-09-08T00:12:01;9.10;;;4.90;;
82744;SDS011;72484;50.004;14.356;2023-09-08T00:14:47;8.60;;;4.50;;
82744;SDS011;72484;50.004;14.356;2023-09-08T00:17:34;10.10;;;5.10;;
82744;SDS011;72484;50.004;14.356;2023-09-08T00:20:21;10.10;;;5.10;;
82744;SDS011;72484;50.004;14.356;2023-09-08T00:23:07;10.60;;;4.60;;
82744;SDS011;72484;50.004;14.356;2023-09-08T00:25:54;10.00;;;4.60;;
82744;SDS011;72484;50.004;14.356;2023-09-08T00:28:40;9.70;;;5.00;;
82744;SDS011;72484;50.004;14.356;2023-09-08T00:31:27;11.90;;;4.80;;
82744;SDS011;72484;50.004;14.356;2023-09-08T00:34:13;11.60;;;5.00;;
82744;SDS011;72484;50.004;14.356;2023-09-08T00:37:00;9.50;;;4.70;;
82744;SDS011;72484;50.004;14.356;2023-09-08T00:39:51;10.90;;;4.70;;
82744;SDS011;72484;50.004;14.356;2023-09-08T00:42:38;12.10;;;4.90;;
82744;SDS011;72484;50.004;14.356;2023-09-08T00:45:24;9.50;;;4.70;;
82744;SDS011;72484;50.004;14.356;2023-09-08T00:48:15;10.90;;;5.00;;
82744;SDS011;72484;50.004;14.356;2023-09-08T00:51:01;10.20;;;4.80;;
82744;SDS011;72484;50.004;14.356;2023-09-08T00:53:50;10.50;;;4.70;;
82744;SDS011;72484;50.004;14.356;2023-09-08T00:56:37;9.20;;;4.60;;
82744;SDS011;72484;50.004;14.356;2023-09-08T00:59:24;10.10;;;5.00;;
82744;SDS011;72484;50.004;14.356;2023-09-08T01:02:11;10.40;;;4.70;;
82744;SDS011;72484;50.004;14.356;2023-09-08T01:04:57;9.80;;;5.10;;
82744;SDS011;72484;50.004;14.356;2023-09-08T01:07:45;9.70;;;4.90;;
82744;SDS011;72484;50.004;14.356;2023-09-08T01:10:32;9.40;;;5.20;;
82744;SDS011;72484;50.004;14.356;2023-09-08T01:13:21;9.80;;;5.20;;
82744;SDS011;72484;50.004;14.356;2023-09-08T01:16:08;10.90;;;4.90;;
82744;SDS011;72484;50.004;14.356;2023-09-08T01:18:54;9.40;;;4.90;;
82744;SDS011;72484;50.004;14.356;2023-09-08T01:25:05;11.50;;;5.40;;
82744;SDS011;72484;50.004;14.356;2023-09-08T01:28:01;11.20;;;5.20;;
82744;SDS011;72484;50.004;14.356;2023-09-08T01:30:49;11.80;;;5.10;;
82744;SDS011;72484;50.004;14.356;2023-09-08T01:33:37;9.40;;;4.90;;
82744;SDS011;72484;50.004;14.356;2023-09-08T01:36:24;10.00;;;5.00;;
82744;SDS011;72484;50.004;14.356;2023-09-08T01:39:11;10.40;;;5.30;;
82744;SDS011;72484;50.004;14.356;2023-09-08T01:41:57;9.90;;;4.90;;
82744;SDS011;72484;50.004;14.356;2023-09-08T01:44:44;9.70;;;4.90;;
82744;SDS011;72484;50.004;14.356;2023-09-08T01:47:30;10.00;;;5.10;;
82744;SDS011;72484;50.004;14.356;2023-09-08T01:50:17;12.00;;;5.30;;
82744;SDS011;72484;50.004;14.356;2023-09-08T01:53:06;8.80;;;4.50;;
82744;SDS011;72484;50.004;14.356;2023-09-08T01:55:53;9.80;;;5.00;;
82744;SDS011;72484;50.004;14.356;2023-09-08T01:58:39;12.10;;;5.50;;
82744;SDS011;72484;50.004;14.356;2023-09-08T02:01:26;12.90;;;5.30;;
82744;SDS011;72484;50.004;14.356;2023-09-08T02:04:12;10.50;;;5.30;;
82744;SDS011;72484;50.004;14.356;2023-09-08T02:06:59;11.10;;;5.10;;
82744;SDS011;72484;50.004;14.356;2023-09-08T02:09:46;9.80;;;5.00;;
82744;SDS011;72484;50.004;14.356;2023-09-08T02:12:33;11.40;;;5.00;;
82744;SDS011;72484;50.004;14.356;2023-09-08T02:15:22;11.00;;;5.40;;
82744;SDS011;72484;50.004;14.356;2023-09-08T02:18:12;9.70;;;5.50;;
82744;SDS011;72484;50.004;14.356;2023-09-08T02:20:59;10.20;;;5.30;;
82744;SDS011;72484;50.004;14.356;2023-09-08T02:23:45;10.40;;;5.60;;
82744;SDS011;72484;50.004;14.356;2023-09-08T02:26:32;10.40;;;5.60;;
82744;SDS011;72484;50.004;14.356;2023-09-08T02:29:19;11.00;;;5.50;;
82744;SDS011;72484;50.004;14.356;2023-09-08T02:32:05;14.00;;;5.50;;
82744;SDS011;72484;50.004;14.356;2023-09-08T02:34:52;11.40;;;5.10;;
82744;SDS011;72484;50.004;14.356;2023-09-08T02:37:38;11.30;;;5.40;;
82744;SDS011;72484;50.004;14.356;2023-09-08T02:40:27;11.20;;;5.20;;
82744;SDS011;72484;50.004;14.356;2023-09-08T02:43:14;9.90;;;5.50;;
82744;SDS011;72484;50.004;14.356;2023-09-08T02:46:00;11.90;;;5.70;;
82744;SDS011;72484;50.004;14.356;2023-09-08T02:48:47;10.00;;;5.30;;
82744;SDS011;72484;50.004;14.356;2023-09-08T02:51:34;11.40;;;5.30;;
82744;SDS011;72484;50.004;14.356;2023-09-08T02:54:20;11.10;;;5.70;;
82744;SDS011;72484;50.004;14.356;2023-09-08T02:57:06;11.50;;;5.60;;
82744;SDS011;72484;50.004;14.356;2023-09-08T02:59:53;11.80;;;5.40;;
82744;SDS011;72484;50.004;14.356;2023-09-08T03:02:41;10.80;;;5.80;;
82744;SDS011;72484;50.004;14.356;2023-09-08T03:05:28;11.60;;;5.90;;
82744;SDS011;72484;50.004;14.356;2023-09-08T03:08:16;12.40;;;5.70;;
82744;SDS011;72484;50.004;14.356;2023-09-08T03:11:03;11.80;;;6.00;;
82744;SDS011;72484;50.004;14.356;2023-09-08T03:13:50;10.70;;;5.50;;
82744;SDS011;72484;50.004;14.356;2023-09-08T03:16:36;12.10;;;5.70;;
82744;SDS011;72484;50.004;14.356;2023-09-08T03:19:23;10.80;;;6.00;;
82744;SDS011;72484;50.004;14.356;2023-09-08T03:22:10;11.80;;;5.90;;
82744;SDS011;72484;50.004;14.356;2023-09-08T03:24:56;11.60;;;6.20;;
82744;SDS011;72484;50.004;14.356;2023-09-08T03:27:42;10.90;;;5.70;;
82744;SDS011;72484;50.004;14.356;2023-09-08T03:30:29;11.70;;;5.50;;
82744;SDS011;72484;50.004;14.356;2023-09-08T03:33:16;10.90;;;5.60;;
82744;SDS011;72484;50.004;14.356;2023-09-08T03:36:03;10.60;;;5.80;;
82744;SDS011;72484;50.004;14.356;2023-09-08T03:38:49;11.50;;;5.90;;
82744;SDS011;72484;50.004;14.356;2023-09-08T03:41:36;12.70;;;6.30;;
82744;SDS011;72484;50.004;14.356;2023-09-08T03:44:22;12.30;;;6.00;;
82744;SDS011;72484;50.004;14.356;2023-09-08T03:47:08;12.30;;;6.60;;
82744;SDS011;72484;50.004;14.356;2023-09-08T03:49:55;12.10;;;6.30;;
82744;SDS011;72484;50.004;14.356;2023-09-08T03:52:41;12.20;;;6.00;;
82744;SDS011;72484;50.004;14.356;2023-09-08T03:55:28;14.30;;;5.90;;
82744;SDS011;72484;50.004;14.356;2023-09-08T03:58:14;12.20;;;6.10;;
82744;SDS011;72484;50.004;14.356;2023-09-08T04:01:01;12.70;;;6.00;;
82744;SDS011;72484;50.004;14.356;2023-09-08T04:03:47;12.00;;;5.80;;
82744;SDS011;72484;50.004;14.356;2023-09-08T04:06:34;12.10;;;6.00;;
82744;SDS011;72484;50.004;14.356;2023-09-08T04:09:20;12.70;;;6.00;;
82744;SDS011;72484;50.004;14.356;2023-09-08T04:12:07;10.60;;;5.80;;
82744;SDS011;72484;50.004;14.356;2023-09-08T04:14:55;12.30;;;6.50;;
82744;SDS011;72484;50.004;14.356;2023-09-08T04:17:42;12.60;;;6.40;;
82744;SDS011;72484;50.004;14.356;2023-09-08T04:20:30;11.00;;;6.30;;
82744;SDS011;72484;50.004;14.356;2023-09-08T04:23:16;10.40;;;5.90;;
82744;SDS011;72484;50.004;14.356;2023-09-08T04:26:03;11.00;;;5.80;;
82744;SDS011;72484;50.004;14.356;2023-09-08T04:28:50;12.70;;;6.40;;
82744;SDS011;72484;50.004;14.356;2023-09-08T04:31:37;11.10;;;6.00;;
82744;SDS011;72484;50.004;14.356;2023-09-08T04:34:23;10.50;;;5.90;;
82744;SDS011;72484;50.004;14.356;2023-09-08T04:37:10;14.00;;;6.50;;
82744;SDS011;72484;50.004;14.356;2023-09-08T04:39:56;10.50;;;5.90;;
82744;SDS011;72484;50.004;14.356;2023-09-08T04:42:43;10.30;;;6.10;;
82744;SDS011;72484;50.004;14.356;2023-09-08T04:45:30;10.70;;;6.40;;
82744;SDS011;72484;50.004;14.356;2023-09-08T04:48:17;13.00;;;6.40;;
82744;SDS011;72484;50.004;14.356;2023-09-08T04:51:03;11.20;;;6.20;;
82744;SDS011;72484;50.004;14.356;2023-09-08T04:53:50;11.70;;;5.90;;
82744;SDS011;72484;50.004;14.356;2023-09-08T04:56:37;12.00;;;6.10;;
82744;SDS011;72484;50.004;14.356;2023-09-08T04:59:24;12.30;;;6.10;;
82744;SDS011;72484;50.004;14.356;2023-09-08T05:02:11;11.70;;;6.90;;
82744;SDS011;72484;50.004;14.356;2023-09-08T05:04:57;11.30;;;6.50;;
82744;SDS011;72484;50.004;14.356;2023-09-08T05:07:44;11.10;;;6.40;;
82744;SDS011;72484;50.004;14.356;2023-09-08T05:10:32;12.50;;;6.60;;
82744;SDS011;72484;50.004;14.356;2023-09-08T05:13:19;12.60;;;6.30;;
82744;SDS011;72484;50.004;14.356;2023-09-08T05:16:11;12.50;;;6.20;;
82744;SDS011;72484;50.004;14.356;2023-09-08T05:18:58;15.40;;;6.60;;
82744;SDS011;72484;50.004;14.356;2023-09-08T05:21:44;11.80;;;6.40;;
82744;SDS011;72484;50.004;14.356;2023-09-08T05:24:31;13.60;;;7.00;;
82744;SDS011;72484;50.004;14.356;2023-09-08T05:27:17;13.10;;;6.40;;
82744;SDS011;72484;50.004;14.356;2023-09-08T05:30:05;12.40;;;6.60;;
82744;SDS011;72484;50.004;14.356;2023-09-08T05:32:53;12.50;;;6.70;;
82744;SDS011;72484;50.004;14.356;2023-09-08T05:35:40;13.20;;;6.70;;
82744;SDS011;72484;50.004;14.356;2023-09-08T05:38:27;13.30;;;6.40;;
82744;SDS011;72484;50.004;14.356;2023-09-08T05:41:13;16.90;;;7.60;;
82744;SDS011;72484;50.004;14.356;2023-09-08T05:44:00;12.30;;;7.10;;
82744;SDS011;72484;50.004;14.356;2023-09-08T05:46:46;15.70;;;7.20;;
82744;SDS011;72484;50.004;14.356;2023-09-08T05:49:32;15.00;;;7.00;;
82744;SDS011;72484;50.004;14.356;2023-09-08T05:52:19;11.90;;;7.30;;
82744;SDS011;72484;50.004;14.356;2023-09-08T05:55:05;15.70;;;7.70;;
82744;SDS011;72484;50.004;14.356;2023-09-08T05:57:51;12.50;;;7.70;;
82744;SDS011;72484;50.004;14.356;2023-09-08T06:00:41;16.00;;;8.20;;
82744;SDS011;72484;50.004;14.356;2023-09-08T06:03:27;14.20;;;7.90;;
82744;SDS011;72484;50.004;14.356;2023-09-08T06:06:13;15.20;;;8.50;;
82744;SDS011;72484;50.004;14.356;2023-09-08T06:09:00;14.20;;;8.20;;
82744;SDS011;72484;50.004;14.356;2023-09-08T06:11:46;13.90;;;7.90;;
82744;SDS011;72484;50.004;14.356;2023-09-08T06:14:33;13.80;;;7.90;;
82744;SDS011;72484;50.004;14.356;2023-09-08T06:17:19;15.50;;;8.30;;
82744;SDS011;72484;50.004;14.356;2023-09-08T06:20:07;15.20;;;8.20;;
82744;SDS011;72484;50.004;14.356;2023-09-08T06:22:55;14.10;;;8.00;;
82744;SDS011;72484;50.004;14.356;2023-09-08T06:25:41;13.30;;;8.10;;
82744;SDS011;72484;50.004;14.356;2023-09-08T06:28:28;14.50;;;7.70;;
82744;SDS011;72484;50.004;14.356;2023-09-08T06:31:14;13.40;;;8.20;;
82744;SDS011;72484;50.004;14.356;2023-09-08T06:34:01;12.10;;;6.80;;
82744;SDS011;72484;50.004;14.356;2023-09-08T06:36:47;12.90;;;6.90;;
82744;SDS011;72484;50.004;14.356;2023-09-08T06:39:34;13.30;;;7.20;;
82744;SDS011;72484;50.004;14.356;2023-09-08T06:42:21;13.40;;;7.60;;
82744;SDS011;72484;50.004;14.356;2023-09-08T06:45:08;16.20;;;7.60;;
82744;SDS011;72484;50.004;14.356;2023-09-08T06:47:55;14.30;;;7.20;;
82744;SDS011;72484;50.004;14.356;2023-09-08T06:50:41;12.50;;;7.10;;
82744;SDS011;72484;50.004;14.356;2023-09-08T06:53:28;14.20;;;7.40;;
82744;SDS011;72484;50.004;14.356;2023-09-08T06:56:15;13.60;;;7.20;;
82744;SDS011;72484;50.004;14.356;2023-09-08T06:59:02;12.20;;;6.60;;
82744;SDS011;72484;50.004;14.356;2023-09-08T07:01:48;11.60;;;6.70;;
82744;SDS011;72484;50.004;14.356;2023-09-08T07:04:35;13.10;;;7.30;;
82744;SDS011;72484;50.004;14.356;2023-09-08T07:07:21;12.50;;;6.90;;
82744;SDS011;72484;50.004;14.356;2023-09-08T07:10:09;10.90;;;6.30;;
82744;SDS011;72484;50.004;14.356;2023-09-08T07:12:56;13.70;;;7.00;;
82744;SDS011;72484;50.004;14.356;2023-09-08T07:15:42;14.20;;;6.60;;
82744;SDS011;72484;50.004;14.356;2023-09-08T07:18:29;13.00;;;7.10;;
82744;SDS011;72484;50.004;14.356;2023-09-08T07:21:20;12.10;;;6.80;;
82744;SDS011;72484;50.004;14.356;2023-09-08T07:24:08;13.60;;;7.20;;
82744;SDS011;72484;50.004;14.356;2023-09-08T07:26:54;13.90;;;7.00;;
82744;SDS011;72484;50.004;14.356;2023-09-08T07:29:40;14.80;;;7.10;;
82744;SDS011;72484;50.004;14.356;2023-09-08T07:32:27;15.30;;;7.20;;
82744;SDS011;72484;50.004;14.356;2023-09-08T07:35:14;15.40;;;7.20;;
82744;SDS011;72484;50.004;14.356;2023-09-08T07:38:01;14.20;;;7.40;;
82744;SDS011;72484;50.004;14.356;2023-09-08T07:40:48;11.50;;;6.90;;
82744;SDS011;72484;50.004;14.356;2023-09-08T07:43:34;14.30;;;7.00;;
82744;SDS011;72484;50.004;14.356;2023-09-08T07:46:25;13.80;;;6.70;;
82744;SDS011;72484;50.004;14.356;2023-09-08T07:49:11;13.90;;;6.90;;
82744;SDS011;72484;50.004;14.356;2023-09-08T07:51:58;14.30;;;7.00;;
82744;SDS011;72484;50.004;14.356;2023-09-08T07:54:44;14.60;;;7.30;;
82744;SDS011;72484;50.004;14.356;2023-09-08T07:57:31;13.70;;;7.10;;
82744;SDS011;72484;50.004;14.356;2023-09-08T08:00:18;15.50;;;7.00;;
82744;SDS011;72484;50.004;14.356;2023-09-08T08:03:05;14.00;;;6.60;;
82744;SDS011;72484;50.004;14.356;2023-09-08T08:05:51;15.80;;;7.60;;
82744;SDS011;72484;50.004;14.356;2023-09-08T08:08:37;13.20;;;6.60;;
82744;SDS011;72484;50.004;14.356;2023-09-08T08:11:25;13.80;;;6.90;;
82744;SDS011;72484;50.004;14.356;2023-09-08T08:14:12;14.90;;;7.30;;
82744;SDS011;72484;50.004;14.356;2023-09-08T08:16:59;15.40;;;6.40;;
82744;SDS011;72484;50.004;14.356;2023-09-08T08:19:45;16.00;;;6.90;;
82744;SDS011;72484;50.004;14.356;2023-09-08T08:22:32;11.70;;;6.40;;
82744;SDS011;72484;50.004;14.356;2023-09-08T08:25:19;13.80;;;6.00;;
82744;SDS011;72484;50.004;14.356;2023-09-08T08:28:05;14.50;;;6.50;;
82744;SDS011;72484;50.004;14.356;2023-09-08T08:30:52;12.70;;;6.50;;
82744;SDS011;72484;50.004;14.356;2023-09-08T08:33:39;13.10;;;6.40;;
82744;SDS011;72484;50.004;14.356;2023-09-08T08:36:26;13.00;;;6.30;;
82744;SDS011;72484;50.004;14.356;2023-09-08T08:39:12;14.70;;;6.40;;
82744;SDS011;72484;50.004;14.356;2023-09-08T08:41:59;13.80;;;5.90;;
82744;SDS011;72484;50.004;14.356;2023-09-08T08:44:53;11.90;;;5.80;;
82744;SDS011;72484;50.004;14.356;2023-09-08T08:47:40;12.00;;;5.50;;
82744;SDS011;72484;50.004;14.356;2023-09-08T08:50:28;12.50;;;5.70;;
82744;SDS011;72484;50.004;14.356;2023-09-08T08:53:17;12.60;;;5.80;;
82744;SDS011;72484;50.004;14.356;2023-09-08T08:56:06;13.10;;;5.50;;
82744;SDS011;72484;50.004;14.356;2023-09-08T08:58:55;12.30;;;5.70;;
82744;SDS011;72484;50.004;14.356;2023-09-08T09:01:43;12.50;;;6.30;;
82744;SDS011;72484;50.004;14.356;2023-09-08T09:04:30;13.30;;;5.40;;
82744;SDS011;72484;50.004;14.356;2023-09-08T09:07:18;12.00;;;5.10;;
82744;SDS011;72484;50.004;14.356;2023-09-08T09:10:06;14.80;;;5.40;;
82744;SDS011;72484;50.004;14.356;2023-09-08T09:12:53;11.00;;;4.90;;
82744;SDS011;72484;50.004;14.356;2023-09-08T09:15:40;9.80;;;5.10;;
82744;SDS011;72484;50.004;14.356;2023-09-08T09:18:29;10.30;;;4.70;;
82744;SDS011;72484;50.004;14.356;2023-09-08T09:21:15;12.60;;;5.20;;
82744;SDS011;72484;50.004;14.356;2023-09-08T09:24:02;9.90;;;5.00;;
82744;SDS011;72484;50.004;14.356;2023-09-08T09:26:52;10.90;;;5.20;;
82744;SDS011;72484;50.004;14.356;2023-09-08T09:29:44;10.50;;;4.90;;
82744;SDS011;72484;50.004;14.356;2023-09-08T09:32:31;11.40;;;4.70;;
82744;SDS011;72484;50.004;14.356;2023-09-08T09:35:20;9.50;;;4.70;;
82744;SDS011;72484;50.004;14.356;2023-09-08T09:38:25;10.50;;;4.70;;
82744;SDS011;72484;50.004;14.356;2023-09-08T09:41:12;11.10;;;4.90;;
82744;SDS011;72484;50.004;14.356;2023-09-08T09:43:59;9.70;;;5.00;;
82744;SDS011;72484;50.004;14.356;2023-09-08T09:46:45;10.10;;;4.50;;
82744;SDS011;72484;50.004;14.356;2023-09-08T09:49:32;10.50;;;5.00;;
82744;SDS011;72484;50.004;14.356;2023-09-08T09:52:27;11.30;;;5.00;;
82744;SDS011;72484;50.004;14.356;2023-09-08T09:55:16;9.90;;;4.70;;
82744;SDS011;72484;50.004;14.356;2023-09-08T09:58:03;12.00;;;4.60;;
82744;SDS011;72484;50.004;14.356;2023-09-08T10:00:51;11.20;;;4.60;;
82744;SDS011;72484;50.004;14.356;2023-09-08T10:03:39;10.00;;;4.20;;
82744;SDS011;72484;50.004;14.356;2023-09-08T10:06:26;8.20;;;4.30;;
82744;SDS011;72484;50.004;14.356;2023-09-08T10:09:12;10.60;;;4.40;;
82744;SDS011;72484;50.004;14.356;2023-09-08T10:12:02;8.90;;;4.40;;
82744;SDS011;72484;50.004;14.356;2023-09-08T10:14:50;9.40;;;4.50;;
82744;SDS011;72484;50.004;14.356;2023-09-08T10:17:40;10.10;;;4.30;;
82744;SDS011;72484;50.004;14.356;2023-09-08T10:20:31;10.10;;;4.70;;
82744;SDS011;72484;50.004;14.356;2023-09-08T10:23:20;10.30;;;4.40;;
82744;SDS011;72484;50.004;14.356;2023-09-08T10:26:11;8.90;;;4.40;;
82744;SDS011;72484;50.004;14.356;2023-09-08T10:29:01;11.00;;;4.70;;
82744;SDS011;72484;50.004;14.356;2023-09-08T10:31:48;9.70;;;4.60;;
82744;SDS011;72484;50.004;14.356;2023-09-08T10:34:36;9.20;;;4.40;;
82744;SDS011;72484;50.004;14.356;2023-09-08T10:37:25;9.40;;;4.70;;
82744;SDS011;72484;50.004;14.356;2023-09-08T10:40:20;9.50;;;4.50;;
82744;SDS011;72484;50.004;14.356;2023-09-08T10:43:09;8.50;;;4.00;;
82744;SDS011;72484;50.004;14.356;2023-09-08T10:45:56;9.00;;;4.70;;
82744;SDS011;72484;50.004;14.356;2023-09-08T10:48:43;8.90;;;4.20;;
82744;SDS011;72484;50.004;14.356;2023-09-08T10:51:29;9.40;;;4.60;;
82744;SDS011;72484;50.004;14.356;2023-09-08T10:54:29;9.60;;;4.60;;
82744;SDS011;72484;50.004;14.356;2023-09-08T10:57:26;13.80;;;5.00;;
82744;SDS011;72484;50.004;14.356;2023-09-08T11:00:18;8.90;;;4.40;;
82744;SDS011;72484;50.004;14.356;2023-09-08T11:03:05;9.60;;;4.60;;
82744;SDS011;72484;50.004;14.356;2023-09-08T11:05:52;11.20;;;4.30;;
82744;SDS011;72484;50.004;14.356;2023-09-08T11:08:40;8.70;;;4.00;;
82744;SDS011;72484;50.004;14.356;2023-09-08T11:11:28;8.20;;;3.90;;
82744;SDS011;72484;50.004;14.356;2023-09-08T11:14:19;7.60;;;3.70;;
82744;SDS011;72484;50.004;14.356;2023-09-08T11:17:05;9.60;;;4.20;;
82744;SDS011;72484;50.004;14.356;2023-09-08T11:19:52;10.00;;;4.20;;
82744;SDS011;72484;50.004;14.356;2023-09-08T11:22:39;7.90;;;3.70;;
82744;SDS011;72484;50.004;14.356;2023-09-08T11:25:26;10.40;;;4.20;;
82744;SDS011;72484;50.004;14.356;2023-09-08T11:28:14;9.70;;;4.00;;
82744;SDS011;72484;50.004;14.356;2023-09-08T11:31:01;8.70;;;4.10;;
82744;SDS011;72484;50.004;14.356;2023-09-08T11:33:49;8.60;;;4.10;;
82744;SDS011;72484;50.004;14.356;2023-09-08T11:36:39;8.70;;;3.60;;
82744;SDS011;72484;50.004;14.356;2023-09-08T11:39:26;10.90;;;3.80;;
82744;SDS011;72484;50.004;14.356;2023-09-08T11:42:13;8.70;;;3.90;;
82744;SDS011;72484;50.004;14.356;2023-09-08T11:45:00;9.10;;;3.50;;
82744;SDS011;72484;50.004;14.356;2023-09-08T11:47:48;8.80;;;3.50;;
82744;SDS011;72484;50.004;14.356;2023-09-08T11:50:35;8.70;;;3.90;;
82744;SDS011;72484;50.004;14.356;2023-09-08T11:53:21;8.50;;;3.80;;
82744;SDS011;72484;50.004;14.356;2023-09-08T11:56:09;8.90;;;3.80;;
82744;SDS011;72484;50.004;14.356;2023-09-08T11:58:55;8.10;;;3.90;;
82744;SDS011;72484;50.004;14.356;2023-09-08T12:01:42;8.90;;;3.70;;
82744;SDS011;72484;50.004;14.356;2023-09-08T12:04:29;8.80;;;3.70;;
82744;SDS011;72484;50.004;14.356;2023-09-08T12:07:15;8.60;;;3.60;;
82744;SDS011;72484;50.004;14.356;2023-09-08T12:10:07;7.80;;;3.70;;
82744;SDS011;72484;50.004;14.356;2023-09-08T12:12:56;8.40;;;3.40;;
82744;SDS011;72484;50.004;14.356;2023-09-08T12:15:45;9.60;;;3.60;;
82744;SDS011;72484;50.004;14.356;2023-09-08T12:18:38;8.40;;;3.90;;
82744;SDS011;72484;50.004;14.356;2023-09-08T12:21:25;7.60;;;3.50;;
82744;SDS011;72484;50.004;14.356;2023-09-08T12:24:12;8.80;;;4.10;;
82744;SDS011;72484;50.004;14.356;2023-09-08T12:26:58;8.00;;;3.60;;
82744;SDS011;72484;50.004;14.356;2023-09-08T12:29:55;8.50;;;3.90;;
82744;SDS011;72484;50.004;14.356;2023-09-08T12:32:44;7.90;;;3.70;;
82744;SDS011;72484;50.004;14.356;2023-09-08T12:35:33;7.70;;;3.80;;
82744;SDS011;72484;50.004;14.356;2023-09-08T12:38:20;9.80;;;3.90;;
82744;SDS011;72484;50.004;14.356;2023-09-08T12:41:07;9.20;;;3.80;;
82744;SDS011;72484;50.004;14.356;2023-09-08T12:43:54;8.10;;;3.50;;
82744;SDS011;72484;50.004;14.356;2023-09-08T12:46:40;8.90;;;3.40;;
82744;SDS011;72484;50.004;14.356;2023-09-08T12:49:26;8.10;;;3.60;;
82744;SDS011;72484;50.004;14.356;2023-09-08T12:52:13;8.50;;;3.50;;
82744;SDS011;72484;50.004;14.356;2023-09-08T12:54:59;8.90;;;3.20;;
82744;SDS011;72484;50.004;14.356;2023-09-08T12:57:46;8.20;;;3.50;;
82744;SDS011;72484;50.004;14.356;2023-09-08T13:00:35;8.80;;;3.00;;
82744;SDS011;72484;50.004;14.356;2023-09-08T13:03:21;8.00;;;3.50;;
82744;SDS011;72484;50.004;14.356;2023-09-08T13:06:08;7.40;;;3.40;;
82744;SDS011;72484;50.004;14.356;2023-09-08T13:08:54;7.70;;;3.40;;
82744;SDS011;72484;50.004;14.356;2023-09-08T13:11:41;7.70;;;3.30;;
82744;SDS011;72484;50.004;14.356;2023-09-08T13:14:27;7.40;;;2.90;;
82744;SDS011;72484;50.004;14.356;2023-09-08T13:17:14;7.00;;;3.30;;
82744;SDS011;72484;50.004;14.356;2023-09-08T13:20:00;7.90;;;3.40;;
82744;SDS011;72484;50.004;14.356;2023-09-08T13:22:47;10.40;;;3.50;;
82744;SDS011;72484;50.004;14.356;2023-09-08T13:25:34;9.50;;;3.40;;
82744;SDS011;72484;50.004;14.356;2023-09-08T13:28:20;8.30;;;3.30;;
82744;SDS011;72484;50.004;14.356;2023-09-08T13:31:07;8.70;;;3.20;;
82744;SDS011;72484;50.004;14.356;2023-09-08T13:33:53;9.40;;;3.10;;
82744;SDS011;72484;50.004;14.356;2023-09-08T13:36:40;9.70;;;3.30;;
82744;SDS011;72484;50.004;14.356;2023-09-08T13:39:26;8.60;;;3.40;;
82744;SDS011;72484;50.004;14.356;2023-09-08T13:42:13;7.30;;;3.00;;
82744;SDS011;72484;50.004;14.356;2023-09-08T13:44:59;7.60;;;3.30;;
82744;SDS011;72484;50.004;14.356;2023-09-08T13:47:45;7.40;;;3.50;;
82744;SDS011;72484;50.004;14.356;2023-09-08T13:50:32;9.80;;;3.40;;
82744;SDS011;72484;50.004;14.356;2023-09-08T13:53:19;7.00;;;3.20;;
82744;SDS011;72484;50.004;14.356;2023-09-08T13:56:05;9.20;;;2.90;;
82744;SDS011;72484;50.004;14.356;2023-09-08T13:58:52;8.10;;;3.60;;
82744;SDS011;72484;50.004;14.356;2023-09-08T14:01:38;9.10;;;3.00;;
82744;SDS011;72484;50.004;14.356;2023-09-08T14:04:25;7.80;;;3.10;;
82744;SDS011;72484;50.004;14.356;2023-09-08T14:07:11;9.90;;;3.30;;
82744;SDS011;72484;50.004;14.356;2023-09-08T14:09:58;8.20;;;3.50;;
82744;SDS011;72484;50.004;14.356;2023-09-08T14:12:46;8.20;;;3.20;;
82744;SDS011;72484;50.004;14.356;2023-09-08T14:15:33;9.20;;;3.10;;
82744;SDS011;72484;50.004;14.356;2023-09-08T14:18:20;7.50;;;3.20;;
82744;SDS011;72484;50.004;14.356;2023-09-08T14:21:06;9.80;;;3.00;;
82744;SDS011;72484;50.004;14.356;2023-09-08T14:23:53;8.40;;;3.20;;
82744;SDS011;72484;50.004;14.356;2023-09-08T14:26:39;11.60;;;3.20;;
82744;SDS011;72484;50.004;14.356;2023-09-08T14:29:26;7.60;;;3.20;;
82744;SDS011;72484;50.004;14.356;2023-09-08T14:32:12;11.60;;;3.70;;
82744;SDS011;72484;50.004;14.356;2023-09-08T14:34:59;7.50;;;3.00;;
82744;SDS011;72484;50.004;14.356;2023-09-08T14:37:46;8.90;;;3.20;;
82744;SDS011;72484;50.004;14.356;2023-09-08T14:40:33;10.00;;;3.60;;
82744;SDS011;72484;50.004;14.356;2023-09-08T14:43:19;8.40;;;2.90;;
82744;SDS011;72484;50.004;14.356;2023-09-08T14:46:06;7.60;;;2.90;;
82744;SDS011;72484;50.004;14.356;2023-09-08T14:48:52;8.10;;;3.40;;
82744;SDS011;72484;50.004;14.356;2023-09-08T14:51:39;8.40;;;2.80;;
82744;SDS011;72484;50.004;14.356;2023-09-08T14:54:26;10.10;;;3.50;;
82744;SDS011;72484;50.004;14.356;2023-09-08T14:57:13;7.50;;;3.00;;
82744;SDS011;72484;50.004;14.356;2023-09-08T14:59:59;8.60;;;3.30;;
82744;SDS011;72484;50.004;14.356;2023-09-08T15:02:46;7.30;;;3.50;;
82744;SDS011;72484;50.004;14.356;2023-09-08T15:05:32;8.30;;;3.00;;
82744;SDS011;72484;50.004;14.356;2023-09-08T15:08:19;9.20;;;3.20;;
82744;SDS011;72484;50.004;14.356;2023-09-08T15:11:05;7.20;;;3.20;;
82744;SDS011;72484;50.004;14.356;2023-09-08T15:13:52;7.30;;;3.30;;
82744;SDS011;72484;50.004;14.356;2023-09-08T15:16:38;12.30;;;3.00;;
82744;SDS011;72484;50.004;14.356;2023-09-08T15:19:25;9.10;;;3.10;;
82744;SDS011;72484;50.004;14.356;2023-09-08T15:22:11;9.10;;;3.40;;
82744;SDS011;72484;50.004;14.356;2023-09-08T15:24:58;8.80;;;3.60;;
82744;SDS011;72484;50.004;14.356;2023-09-08T15:27:44;8.20;;;3.60;;
82744;SDS011;72484;50.004;14.356;2023-09-08T15:30:31;8.50;;;3.00;;
82744;SDS011;72484;50.004;14.356;2023-09-08T15:33:17;8.90;;;3.30;;
82744;SDS011;72484;50.004;14.356;2023-09-08T15:36:05;7.40;;;3.30;;
82744;SDS011;72484;50.004;14.356;2023-09-08T15:38:52;9.10;;;3.60;;
82744;SDS011;72484;50.004;14.356;2023-09-08T15:41:38;7.70;;;3.20;;
82744;SDS011;72484;50.004;14.356;2023-09-08T15:44:24;7.10;;;3.30;;
82744;SDS011;72484;50.004;14.356;2023-09-08T15:47:11;8.40;;;3.20;;
82744;SDS011;72484;50.004;14.356;2023-09-08T15:49:57;9.20;;;3.70;;
82744;SDS011;72484;50.004;14.356;2023-09-08T15:52:45;9.20;;;3.10;;
82744;SDS011;72484;50.004;14.356;2023-09-08T15:55:32;8.50;;;3.40;;
82744;SDS011;72484;50.004;14.356;2023-09-08T15:58:18;7.40;;;3.30;;
82744;SDS011;72484;50.004;14.356;2023-09-08T16:01:05;7.90;;;3.60;;
82744;SDS011;72484;50.004;14.356;2023-09-08T16:03:52;8.90;;;3.50;;
82744;SDS011;72484;50.004;14.356;2023-09-08T16:06:39;7.30;;;3.20;;
82744;SDS011;72484;50.004;14.356;2023-09-08T16:09:25;7.70;;;3.30;;
82744;SDS011;72484;50.004;14.356;2023-09-08T16:12:12;8.70;;;3.70;;
82744;SDS011;72484;50.004;14.356;2023-09-08T16:14:58;8.20;;;3.50;;
82744;SDS011;72484;50.004;14.356;2023-09-08T16:17:45;8.30;;;3.50;;
82744;SDS011;72484;50.004;14.356;2023-09-08T16:20:31;8.80;;;3.50;;
82744;SDS011;72484;50.004;14.356;2023-09-08T16:23:18;9.00;;;3.30;;
82744;SDS011;72484;50.004;14.356;2023-09-08T16:26:05;8.90;;;3.60;;